createdAt,value
2023-05-17T00:00:16.594Z,2.60
2023-05-17T00:01:17.591Z,2.70
2023-05-17T00:02:17.805Z,3.20
2023-05-17T00:03:18.497Z,2.90
2023-05-17T00:04:19.273Z,2.70
2023-05-17T00:05:19.968Z,2.70
2023-05-17T00:06:21.139Z,2.70
2023-05-17T00:07:21.301Z,3.00
2023-05-17T00:08:22.014Z,2.90
2023-05-17T00:09:22.722Z,3.30
2023-05-17T00:10:23.430Z,2.80
2023-05-17T00:11:24.598Z,3.10
2023-05-17T00:12:24.802Z,2.80
2023-05-17T00:13:25.572Z,3.00
2023-05-17T00:14:26.276Z,2.90
2023-05-17T00:15:27.184Z,3.10
2023-05-17T00:16:28.093Z,2.90
2023-05-17T00:17:28.828Z,2.90
2023-05-17T00:18:29.579Z,3.40
2023-05-17T00:19:30.357Z,2.80
2023-05-17T00:20:31.020Z,3.00
2023-05-17T00:21:32.085Z,2.90
2023-05-17T00:22:32.299Z,2.80
2023-05-17T00:23:32.999Z,2.90
2023-05-17T00:24:33.702Z,3.30
2023-05-17T00:25:34.418Z,3.10
2023-05-17T00:26:35.589Z,3.00
2023-05-17T00:27:35.808Z,2.90
2023-05-17T00:28:36.500Z,3.10
2023-05-17T00:29:37.222Z,3.10
2023-05-17T00:30:38.045Z,2.90
2023-05-17T00:31:39.092Z,3.20
2023-05-17T00:32:39.350Z,3.00
2023-05-17T00:33:40.031Z,3.20
2023-05-17T00:34:40.736Z,3.10
2023-05-17T00:35:41.433Z,3.20
2023-05-17T00:36:42.600Z,3.10
2023-05-17T00:37:42.793Z,3.10
2023-05-17T00:38:43.497Z,3.30
2023-05-17T00:39:44.223Z,2.80
2023-05-17T00:40:44.907Z,3.10
2023-05-17T00:41:46.102Z,3.30
2023-05-17T00:42:46.303Z,3.20
2023-05-17T00:43:47.008Z,3.20
2023-05-17T00:44:47.718Z,3.00
2023-05-17T00:45:48.758Z,3.20
2023-05-17T00:46:49.591Z,3.30
2023-05-17T00:47:50.377Z,3.60
2023-05-17T00:48:51.073Z,3.30
2023-05-17T00:49:51.754Z,3.20
2023-05-17T00:50:52.473Z,3.80
2023-05-17T00:51:53.596Z,3.90
2023-05-17T00:52:53.800Z,3.90
2023-05-17T00:53:54.508Z,3.30
2023-05-17T00:54:55.214Z,3.50
2023-05-17T00:55:55.915Z,4.40
2023-05-17T00:56:57.199Z,3.70
2023-05-17T00:57:57.346Z,4.00
2023-05-17T00:58:58.049Z,3.50
2023-05-17T00:59:58.756Z,3.50
2023-05-17T01:00:59.571Z,3.90
2023-05-17T01:02:00.596Z,3.50
2023-05-17T01:03:00.888Z,4.10
2023-05-17T01:04:01.645Z,3.60
2023-05-17T01:05:02.405Z,3.80
2023-05-17T01:06:03.053Z,3.90
2023-05-17T01:07:04.100Z,4.00
2023-05-17T01:08:04.298Z,4.00
2023-05-17T01:09:05.002Z,4.00
2023-05-17T01:10:05.707Z,3.80
2023-05-17T01:11:06.427Z,3.90
2023-05-17T01:12:07.611Z,4.10
2023-05-17T01:13:07.823Z,3.80
2023-05-17T01:14:08.523Z,3.80
2023-05-17T01:15:09.224Z,4.00
2023-05-17T01:16:10.092Z,4.30
2023-05-17T01:17:11.093Z,4.10
2023-05-17T01:18:11.468Z,4.00
2023-05-17T01:19:11.868Z,4.00
2023-05-17T01:20:14.195Z,4.30
2023-05-17T01:21:13.396Z,4.00
2023-05-17T01:22:14.590Z,4.40
2023-05-17T01:23:14.815Z,4.60
2023-05-17T01:24:15.502Z,4.00
2023-05-17T01:25:16.210Z,3.90
2023-05-17T01:26:16.915Z,4.40
2023-05-17T01:27:18.090Z,4.50
2023-05-17T01:28:18.301Z,4.40
2023-05-17T01:29:19.011Z,4.50
2023-05-17T01:30:19.716Z,4.60
2023-05-17T01:31:20.716Z,4.50
2023-05-17T01:32:21.597Z,4.30
2023-05-17T01:33:22.361Z,4.30
2023-05-17T01:34:23.060Z,4.40
2023-05-17T01:35:23.766Z,4.90
2023-05-17T01:36:24.471Z,4.80
2023-05-17T01:37:25.598Z,4.50
2023-05-17T01:38:25.818Z,4.60
2023-05-17T01:39:26.503Z,4.70
2023-05-17T01:40:27.221Z,4.40
2023-05-17T01:41:27.939Z,4.90
2023-05-17T01:42:29.101Z,4.60
2023-05-17T01:43:29.310Z,4.70
2023-05-17T01:44:32.439Z,4.60
2023-05-17T01:45:30.759Z,4.90
2023-05-17T01:46:31.531Z,4.60
2023-05-17T01:47:32.636Z,5.00
2023-05-17T01:48:32.845Z,5.10
2023-05-17T01:49:33.510Z,4.80
2023-05-17T01:50:34.215Z,4.50
2023-05-17T01:51:34.942Z,5.80
2023-05-17T01:52:36.099Z,4.80
2023-05-17T01:53:36.304Z,5.20
2023-05-17T01:54:37.014Z,5.00
2023-05-17T01:55:37.713Z,5.00
2023-05-17T01:56:38.425Z,5.10
2023-05-17T01:57:39.778Z,5.10
2023-05-17T01:58:39.987Z,4.90
2023-05-17T01:59:40.698Z,4.90
2023-05-17T02:00:41.409Z,4.90
2023-05-17T02:01:42.356Z,5.40
2023-05-17T02:02:43.118Z,5.50
2023-05-17T02:03:43.910Z,5.50
2023-05-17T02:04:44.600Z,5.60
2023-05-17T02:05:45.270Z,6.70
2023-05-17T02:06:45.973Z,7.20
2023-05-17T02:07:47.098Z,8.80
2023-05-17T02:08:47.307Z,9.10
2023-05-17T02:09:48.007Z,10.90
2023-05-17T02:10:48.712Z,10.60
2023-05-17T02:11:49.424Z,11.90
2023-05-17T02:12:50.610Z,12.30
2023-05-17T02:13:50.806Z,13.60
2023-05-17T02:14:51.509Z,13.30
2023-05-17T02:15:52.218Z,13.40
2023-05-17T02:16:53.036Z,13.80
2023-05-17T02:17:54.164Z,13.50
2023-05-17T02:18:54.380Z,14.00
2023-05-17T02:19:55.098Z,13.50
2023-05-17T02:20:55.801Z,13.70
2023-05-17T02:21:56.511Z,13.50
2023-05-17T02:22:57.220Z,14.00
2023-05-17T02:23:57.920Z,13.90
2023-05-17T02:24:58.623Z,13.90
2023-05-17T02:25:59.316Z,13.30
2023-05-17T02:27:00.024Z,12.80
2023-05-17T02:28:01.110Z,13.00
2023-05-17T02:29:01.327Z,13.40
2023-05-17T02:30:02.153Z,12.60
2023-05-17T02:31:02.880Z,11.60
2023-05-17T02:32:03.798Z,11.90
2023-05-17T02:33:04.645Z,11.30
2023-05-17T02:34:05.380Z,10.70
2023-05-17T02:35:06.051Z,10.60
2023-05-17T02:36:06.759Z,10.50
2023-05-17T02:37:07.479Z,10.30
2023-05-17T02:38:08.603Z,10.40
2023-05-17T02:39:08.807Z,9.70
2023-05-17T02:40:09.538Z,10.00
2023-05-17T02:41:10.212Z,9.70
2023-05-17T02:42:10.920Z,9.10
2023-05-17T02:43:12.130Z,9.60
2023-05-17T02:44:12.315Z,9.00
2023-05-17T02:45:13.021Z,8.80
2023-05-17T02:46:13.724Z,8.70
2023-05-17T02:47:14.613Z,8.60
2023-05-17T02:48:15.665Z,8.50
2023-05-17T02:49:15.809Z,8.50
2023-05-17T02:50:16.508Z,8.70
2023-05-17T02:51:17.215Z,8.40
2023-05-17T02:52:17.955Z,8.70
2023-05-17T02:53:19.100Z,8.60
2023-05-17T02:54:19.305Z,8.40
2023-05-17T02:55:20.022Z,8.50
2023-05-17T02:56:20.716Z,8.90
2023-05-17T02:57:21.426Z,8.20
2023-05-17T02:58:22.792Z,7.60
2023-05-17T02:59:22.993Z,7.90
2023-05-17T03:00:23.698Z,8.30
2023-05-17T03:01:24.403Z,7.90
2023-05-17T03:02:25.275Z,8.00
2023-05-17T03:03:26.218Z,7.40
2023-05-17T03:04:26.530Z,8.40
2023-05-17T03:05:27.259Z,7.40
2023-05-17T03:06:27.996Z,7.80
2023-05-17T03:07:28.701Z,7.90
2023-05-17T03:08:29.613Z,7.40
2023-05-17T03:09:30.301Z,7.70
2023-05-17T03:10:31.019Z,7.80
2023-05-17T03:11:31.723Z,7.60
2023-05-17T03:12:32.447Z,7.40
2023-05-17T03:13:33.603Z,7.70
2023-05-17T03:14:33.809Z,8.30
2023-05-17T03:15:34.608Z,8.50
2023-05-17T03:16:35.239Z,8.00
2023-05-17T03:17:36.073Z,7.70
2023-05-17T03:18:37.275Z,7.80
2023-05-17T03:19:37.547Z,8.00
2023-05-17T03:20:38.241Z,7.90
2023-05-17T03:21:38.954Z,8.00
2023-05-17T03:22:39.651Z,8.40
2023-05-17T03:23:40.604Z,7.70
2023-05-17T03:24:41.329Z,8.30
2023-05-17T03:25:42.028Z,8.10
2023-05-17T03:26:42.735Z,7.30
2023-05-17T03:27:43.513Z,7.60
2023-05-17T03:28:44.605Z,7.10
2023-05-17T03:29:44.821Z,7.50
2023-05-17T03:30:45.541Z,7.40
2023-05-17T03:31:46.219Z,7.30
2023-05-17T03:32:47.122Z,7.60
2023-05-17T03:33:48.215Z,7.30
2023-05-17T03:34:48.414Z,7.40
2023-05-17T03:35:49.129Z,7.70
2023-05-17T03:36:49.832Z,7.70
2023-05-17T03:37:50.543Z,7.60
2023-05-17T03:38:51.604Z,7.00
2023-05-17T03:39:51.805Z,7.60
2023-05-17T03:40:52.521Z,7.40
2023-05-17T03:41:53.242Z,7.20
2023-05-17T03:42:53.973Z,7.20
2023-05-17T03:43:55.103Z,7.40
2023-05-17T03:44:55.309Z,6.90
2023-05-17T03:45:56.019Z,7.10
2023-05-17T03:46:56.714Z,7.30
2023-05-17T03:47:57.602Z,7.50
2023-05-17T03:48:58.630Z,7.50
2023-05-17T03:49:58.806Z,7.50
2023-05-17T03:50:59.511Z,7.20
2023-05-17T03:52:00.219Z,7.20
2023-05-17T03:53:00.926Z,7.10
2023-05-17T03:54:02.107Z,7.60
2023-05-17T03:55:02.318Z,7.00
2023-05-17T03:56:03.037Z,7.40
2023-05-17T03:57:03.774Z,7.30
2023-05-17T03:58:04.450Z,7.40
2023-05-17T03:59:05.808Z,7.10
2023-05-17T04:00:06.003Z,7.40
2023-05-17T04:01:06.702Z,6.90
2023-05-17T04:02:07.403Z,7.40
2023-05-17T04:03:08.261Z,7.30
2023-05-17T04:04:09.126Z,7.00
2023-05-17T04:05:09.851Z,6.60
2023-05-17T04:06:10.535Z,7.80
2023-05-17T04:07:11.242Z,7.00
2023-05-17T04:08:11.948Z,6.70
2023-05-17T04:09:13.106Z,6.70
2023-05-17T04:10:13.326Z,7.10
2023-05-17T04:11:14.133Z,6.80
2023-05-17T04:12:14.818Z,6.80
2023-05-17T04:13:15.525Z,7.20
2023-05-17T04:14:16.609Z,6.90
2023-05-17T04:15:16.810Z,6.70
2023-05-17T04:16:17.520Z,6.70
2023-05-17T04:17:18.246Z,6.70
2023-05-17T04:18:19.177Z,6.60
2023-05-17T04:19:20.154Z,6.80
2023-05-17T04:20:20.389Z,6.90
2023-05-17T04:21:21.100Z,6.90
2023-05-17T04:22:21.796Z,6.60
2023-05-17T04:23:22.502Z,6.50
2023-05-17T04:24:23.607Z,6.70
2023-05-17T04:25:23.814Z,6.50
2023-05-17T04:26:24.520Z,6.80
2023-05-17T04:27:25.441Z,6.50
2023-05-17T04:28:26.144Z,6.50
2023-05-17T04:29:27.110Z,6.70
2023-05-17T04:30:27.821Z,7.10
2023-05-17T04:31:28.522Z,6.00
2023-05-17T04:32:29.248Z,6.90
2023-05-17T04:33:30.112Z,6.30
2023-05-17T04:34:31.108Z,6.70
2023-05-17T04:35:31.314Z,6.70
2023-05-17T04:36:32.027Z,6.50
2023-05-17T04:37:32.733Z,6.80
2023-05-17T04:38:33.441Z,6.80
2023-05-17T04:39:34.636Z,7.10
2023-05-17T04:40:34.838Z,7.10
2023-05-17T04:41:35.543Z,7.10
2023-05-17T04:42:36.248Z,6.80
2023-05-17T04:43:36.963Z,7.10
2023-05-17T04:44:38.116Z,6.80
2023-05-17T04:45:38.321Z,6.70
2023-05-17T04:46:39.033Z,7.10
2023-05-17T04:47:39.813Z,7.30
2023-05-17T04:48:40.752Z,6.80
2023-05-17T04:49:41.610Z,6.60
2023-05-17T04:50:42.313Z,6.70
2023-05-17T04:51:43.022Z,6.80
2023-05-17T04:52:43.736Z,6.50
2023-05-17T04:53:44.452Z,6.60
2023-05-17T04:54:45.614Z,7.00
2023-05-17T04:55:45.820Z,7.00
2023-05-17T04:56:46.519Z,6.50
2023-05-17T04:57:47.227Z,6.60
2023-05-17T04:58:47.944Z,6.80
2023-05-17T04:59:49.302Z,7.20
2023-05-17T05:00:49.512Z,7.10
2023-05-17T05:01:50.208Z,8.40
2023-05-17T05:02:50.947Z,7.50
2023-05-17T05:03:51.821Z,6.70
2023-05-17T05:04:52.815Z,6.10
2023-05-17T05:05:53.023Z,6.40
2023-05-17T05:06:53.734Z,6.40
2023-05-17T05:07:54.443Z,6.00
2023-05-17T05:08:55.145Z,6.00
2023-05-17T05:09:56.107Z,6.10
2023-05-17T05:10:56.823Z,6.10
2023-05-17T05:11:57.533Z,6.20
2023-05-17T05:12:58.239Z,6.10
2023-05-17T05:13:58.932Z,5.90
2023-05-17T05:15:01.118Z,5.40
2023-05-17T05:16:00.518Z,6.00
2023-05-17T05:17:01.228Z,5.60
2023-05-17T05:18:02.017Z,5.90
2023-05-17T05:19:03.067Z,5.40
2023-05-17T05:20:03.610Z,6.00
2023-05-17T05:21:04.315Z,5.50
2023-05-17T05:22:05.026Z,5.80
2023-05-17T05:23:05.754Z,5.90
2023-05-17T05:24:06.456Z,5.50
2023-05-17T05:25:07.612Z,5.60
2023-05-17T05:26:07.835Z,5.60
2023-05-17T05:27:08.543Z,5.20
2023-05-17T05:28:09.252Z,5.20
2023-05-17T05:29:09.957Z,5.20
2023-05-17T05:30:11.115Z,5.10
2023-05-17T05:31:11.334Z,5.30
2023-05-17T05:32:12.040Z,5.00
2023-05-17T05:33:13.044Z,4.90
2023-05-17T05:34:13.517Z,5.30
2023-05-17T05:35:14.612Z,5.10
2023-05-17T05:36:14.832Z,4.70
2023-05-17T05:37:17.238Z,4.40
2023-05-17T05:38:16.253Z,4.50
2023-05-17T05:39:16.958Z,4.80
2023-05-17T05:40:18.107Z,4.20
2023-05-17T05:41:18.311Z,5.00
2023-05-17T05:42:19.035Z,4.60
2023-05-17T05:43:19.745Z,4.90
2023-05-17T05:44:20.446Z,5.00
2023-05-17T05:45:21.631Z,5.00
2023-05-17T05:46:21.828Z,4.40
2023-05-17T05:47:22.528Z,4.60
2023-05-17T05:48:23.299Z,4.30
2023-05-17T05:49:24.233Z,4.70
2023-05-17T05:50:25.110Z,4.40
2023-05-17T05:51:25.397Z,5.70
2023-05-17T05:52:26.146Z,5.30
2023-05-17T05:53:26.916Z,4.50
2023-05-17T05:54:27.632Z,4.20
2023-05-17T05:55:28.631Z,5.20
2023-05-17T05:56:28.836Z,4.10
2023-05-17T05:57:29.566Z,4.30
2023-05-17T05:58:30.296Z,4.00
2023-05-17T05:59:30.992Z,4.60
2023-05-17T06:00:31.850Z,3.80
2023-05-17T06:01:32.595Z,4.20
2023-05-17T06:02:33.326Z,3.90
2023-05-17T06:03:33.984Z,4.10
2023-05-17T06:04:44.706Z,4.00
2023-05-17T06:05:36.663Z,4.40
2023-05-17T06:06:36.241Z,4.20
2023-05-17T06:07:36.599Z,4.10
2023-05-17T06:08:37.255Z,4.40
2023-05-17T06:09:37.964Z,5.90
2023-05-17T06:10:38.671Z,6.10
2023-05-17T06:11:39.385Z,5.90
2023-05-17T06:12:40.110Z,6.00
2023-05-17T06:13:40.798Z,5.50
2023-05-17T06:14:41.508Z,5.50
2023-05-17T06:15:42.623Z,6.20
2023-05-17T06:16:42.827Z,6.10
2023-05-17T06:17:43.616Z,6.10
2023-05-17T06:18:44.417Z,6.00
2023-05-17T06:19:45.362Z,5.80
2023-05-17T06:20:46.127Z,5.20
2023-05-17T06:21:46.831Z,5.90
2023-05-17T06:22:47.557Z,6.10
2023-05-17T06:23:48.252Z,5.70
2023-05-17T06:24:48.974Z,5.90
2023-05-17T06:25:50.119Z,5.90
2023-05-17T06:26:50.326Z,5.80
2023-05-17T06:27:51.038Z,5.20
2023-05-17T06:28:51.801Z,5.20
2023-05-17T06:29:52.529Z,5.40
2023-05-17T06:30:53.655Z,5.30
2023-05-17T06:31:53.832Z,5.50
2023-05-17T06:32:54.555Z,4.90
2023-05-17T06:33:55.288Z,4.30
2023-05-17T06:34:56.153Z,4.30
2023-05-17T06:35:58.128Z,5.10
2023-05-17T06:36:57.704Z,4.70
2023-05-17T06:37:58.407Z,4.40
2023-05-17T06:38:59.126Z,4.40
2023-05-17T06:40:04.174Z,3.90
2023-05-17T06:41:01.625Z,3.80
2023-05-17T06:42:01.338Z,3.60
2023-05-17T06:43:02.082Z,3.80
2023-05-17T06:44:02.775Z,3.90
2023-05-17T06:45:03.509Z,3.60
2023-05-17T06:46:04.640Z,3.70
2023-05-17T06:47:04.928Z,4.00
2023-05-17T06:48:05.721Z,3.90
2023-05-17T06:49:06.512Z,3.70
2023-05-17T06:50:07.340Z,3.70
2023-05-17T06:51:08.124Z,3.50
2023-05-17T06:52:08.830Z,3.40
2023-05-17T06:53:09.546Z,3.70
2023-05-17T06:54:10.248Z,3.30
2023-05-17T06:55:11.041Z,3.80
2023-05-17T06:56:11.867Z,3.30
2023-05-17T06:57:12.404Z,3.60
2023-05-17T06:58:13.106Z,2.80
2023-05-17T06:59:13.809Z,3.00
2023-05-17T07:00:14.510Z,2.90
2023-05-17T07:01:15.229Z,3.10
2023-05-17T07:02:15.932Z,3.10
2023-05-17T07:03:16.726Z,3.50
2023-05-17T07:04:17.485Z,3.60
2023-05-17T07:05:18.310Z,3.30
2023-05-17T07:06:18.993Z,3.00
2023-05-17T07:07:19.689Z,3.00
2023-05-17T07:08:20.392Z,3.90
2023-05-17T07:09:21.097Z,3.70
2023-05-17T07:10:21.853Z,3.70
2023-05-17T07:11:22.627Z,3.50
2023-05-17T07:12:23.333Z,3.40
2023-05-17T07:13:24.029Z,3.80
2023-05-17T07:14:24.746Z,3.30
2023-05-17T07:15:25.443Z,3.50
2023-05-17T07:16:26.626Z,3.40
2023-05-17T07:17:26.865Z,3.60
2023-05-17T07:18:27.585Z,3.00
2023-05-17T07:19:28.645Z,3.10
2023-05-17T07:20:29.459Z,2.90
2023-05-17T07:21:30.129Z,3.20
2023-05-17T07:22:30.833Z,2.90
2023-05-17T07:23:31.534Z,3.20
2023-05-17T07:24:32.239Z,3.40
2023-05-17T07:25:32.960Z,3.60
2023-05-17T07:26:34.156Z,3.40
2023-05-17T07:27:34.487Z,3.10
2023-05-17T07:28:35.161Z,2.90
2023-05-17T07:29:35.866Z,3.20
2023-05-17T07:30:36.568Z,3.10
2023-05-17T07:31:37.632Z,3.10
2023-05-17T07:32:37.892Z,3.00
2023-05-17T07:33:38.550Z,3.00
2023-05-17T07:34:39.337Z,2.90
2023-05-17T07:35:40.156Z,3.00
2023-05-17T07:36:41.143Z,2.90
2023-05-17T07:37:43.126Z,3.40
2023-05-17T07:38:42.327Z,2.80
2023-05-17T07:39:43.038Z,2.80
2023-05-17T07:40:43.735Z,2.70
2023-05-17T07:41:45.623Z,2.60
2023-05-17T07:42:45.357Z,2.40
2023-05-17T07:43:46.073Z,2.90
2023-05-17T07:44:46.772Z,2.70
2023-05-17T07:45:47.478Z,2.80
2023-05-17T07:46:48.703Z,2.40
2023-05-17T07:47:48.927Z,2.70
2023-05-17T07:48:49.733Z,2.40
2023-05-17T07:49:50.446Z,3.00
2023-05-17T07:50:51.317Z,2.50
2023-05-17T07:51:52.167Z,2.70
2023-05-17T07:52:52.860Z,2.90
2023-05-17T07:53:53.594Z,3.00
2023-05-17T07:54:54.250Z,2.70
2023-05-17T07:55:54.963Z,2.70
2023-05-17T07:56:55.695Z,2.80
2023-05-17T07:57:56.420Z,3.00
2023-05-17T07:58:57.130Z,3.00
2023-05-17T07:59:57.846Z,2.70
2023-05-17T08:00:58.550Z,2.90
2023-05-17T08:01:59.269Z,3.00
2023-05-17T08:03:00.005Z,2.60
2023-05-17T08:04:00.716Z,2.60
2023-05-17T08:05:01.423Z,3.00
2023-05-17T08:06:02.313Z,3.30
2023-05-17T08:07:03.006Z,2.70
2023-05-17T08:08:04.692Z,2.90
2023-05-17T08:09:04.390Z,3.00
2023-05-17T08:10:05.122Z,2.50
2023-05-17T08:11:05.801Z,3.10
2023-05-17T08:12:07.142Z,2.30
2023-05-17T08:13:07.334Z,3.00
2023-05-17T08:14:08.641Z,2.80
2023-05-17T08:15:08.839Z,2.80
2023-05-17T08:16:14.132Z,2.70
2023-05-17T08:17:10.146Z,2.50
2023-05-17T08:18:10.986Z,2.60
2023-05-17T08:19:11.766Z,2.60
2023-05-17T08:20:12.735Z,2.70
2023-05-17T08:21:13.092Z,2.70
2023-05-17T08:22:14.182Z,2.60
2023-05-17T08:25:03.655Z,2.50
2023-05-17T08:26:03.894Z,2.60
2023-05-17T08:27:04.624Z,2.90
2023-05-17T08:28:05.278Z,3.00
2023-05-17T08:29:06.005Z,3.00
2023-05-17T08:30:09.130Z,2.80
2023-05-17T08:31:07.644Z,2.80
2023-05-17T08:32:08.351Z,3.50
2023-05-17T08:33:09.100Z,2.80
2023-05-17T08:34:09.829Z,2.70
2023-05-17T08:35:10.499Z,2.70
2023-05-17T08:36:11.204Z,2.60
2023-05-17T08:37:11.959Z,2.70
2023-05-17T08:38:12.631Z,2.50
2023-05-17T08:39:13.338Z,2.30
2023-05-17T08:40:14.510Z,2.70
2023-05-17T08:41:14.668Z,2.80
2023-05-17T08:42:15.374Z,2.90
2023-05-17T08:43:16.113Z,3.00
2023-05-17T08:44:16.828Z,3.70
2023-05-17T08:45:17.532Z,4.40
2023-05-17T08:46:18.240Z,3.20
2023-05-17T08:47:18.979Z,2.80
2023-05-17T08:48:20.088Z,3.10
2023-05-17T08:49:20.704Z,3.00
2023-05-17T08:50:21.751Z,3.60
2023-05-17T08:51:21.974Z,3.40
2023-05-17T08:52:22.701Z,3.20
2023-05-17T08:53:23.436Z,2.60
2023-05-17T08:54:24.183Z,2.80
2023-05-17T08:55:24.955Z,2.90
2023-05-17T08:56:25.646Z,2.60
2023-05-17T08:57:26.353Z,2.50
2023-05-17T08:58:27.058Z,4.10
2023-05-17T08:59:27.766Z,3.00
2023-05-17T09:00:29.144Z,2.60
2023-05-17T09:01:32.224Z,2.80
2023-05-17T09:02:30.394Z,2.40
2023-05-17T09:03:31.233Z,3.00
2023-05-17T09:04:32.080Z,2.50
2023-05-17T09:05:32.768Z,2.60
2023-05-17T09:06:33.518Z,3.10
2023-05-17T09:07:34.284Z,2.80
2023-05-17T09:08:34.934Z,2.90
2023-05-17T09:09:35.691Z,2.80
2023-05-17T09:10:36.399Z,2.80
2023-05-17T09:11:37.086Z,2.60
2023-05-17T09:12:37.792Z,2.70
2023-05-17T09:13:38.485Z,2.90
2023-05-17T09:14:39.188Z,3.50
2023-05-17T09:15:39.909Z,2.60
2023-05-17T09:16:41.572Z,2.70
2023-05-17T09:17:41.308Z,2.90
2023-05-17T09:18:42.234Z,2.30
2023-05-17T09:19:42.672Z,2.10
2023-05-17T09:20:43.554Z,2.40
2023-05-17T09:21:44.184Z,2.60
2023-05-17T09:22:44.954Z,2.70
2023-05-17T09:23:54.243Z,2.60
2023-05-17T09:24:47.198Z,2.50
2023-05-17T09:25:46.946Z,2.60
2023-05-17T09:26:47.667Z,2.50
2023-05-17T09:27:48.379Z,2.50
2023-05-17T09:28:49.076Z,2.60
2023-05-17T09:29:49.795Z,2.10
2023-05-17T09:30:50.950Z,2.30
2023-05-17T09:31:51.135Z,2.40
2023-05-17T09:32:51.845Z,2.40
2023-05-17T09:33:52.690Z,2.30
2023-05-17T09:34:53.364Z,2.10
2023-05-17T09:35:54.439Z,1.90
2023-05-17T09:36:54.660Z,2.30
2023-05-17T09:37:55.507Z,2.40
2023-05-17T09:38:56.215Z,2.20
2023-05-17T09:39:56.917Z,2.30
2023-05-17T09:40:57.628Z,2.50
2023-05-17T09:41:58.340Z,2.40
2023-05-17T09:42:59.047Z,2.40
2023-05-17T09:43:59.776Z,2.20
2023-05-17T09:45:00.499Z,2.50
2023-05-17T09:46:01.197Z,2.60
2023-05-17T09:47:01.900Z,2.30
2023-05-17T09:48:02.715Z,2.50
2023-05-17T09:49:04.713Z,2.50
2023-05-17T09:50:04.084Z,2.50
2023-05-17T09:51:04.949Z,2.50
2023-05-17T09:52:05.711Z,2.70
2023-05-17T09:53:06.451Z,2.60
2023-05-17T09:54:07.141Z,2.10
2023-05-17T09:55:07.968Z,2.50
2023-05-17T09:56:08.755Z,2.30
2023-05-17T09:57:09.527Z,2.30
2023-05-17T09:58:10.223Z,2.30
2023-05-17T09:59:11.106Z,2.70
2023-05-17T10:00:11.830Z,2.20
2023-05-17T10:01:12.947Z,2.60
2023-05-17T10:02:13.315Z,2.30
2023-05-17T10:03:14.248Z,2.50
2023-05-17T10:04:15.032Z,2.20
2023-05-17T10:05:15.712Z,2.40
2023-05-17T10:06:28.206Z,2.30
2023-05-17T10:07:18.084Z,2.40
2023-05-17T10:08:17.836Z,2.10
2023-05-17T10:09:18.460Z,2.80
2023-05-17T10:10:19.509Z,2.60
2023-05-17T10:11:20.654Z,2.40
2023-05-17T10:12:20.551Z,2.40
2023-05-17T10:13:21.447Z,2.50
2023-05-17T10:14:22.103Z,2.40
2023-05-17T10:15:22.808Z,2.20
2023-05-17T10:16:23.958Z,2.40
2023-05-17T10:17:24.222Z,2.30
2023-05-17T10:18:25.336Z,3.00
2023-05-17T10:19:25.600Z,2.30
2023-05-17T10:20:26.332Z,2.50
2023-05-17T10:21:27.456Z,3.00
2023-05-17T10:22:27.686Z,2.40
2023-05-17T10:23:28.597Z,2.60
2023-05-17T10:24:29.257Z,2.80
2023-05-17T10:25:30.414Z,3.30
2023-05-17T10:26:30.971Z,6.00
2023-05-17T10:27:31.708Z,9.20
2023-05-17T10:28:32.381Z,8.40
2023-05-17T10:29:33.085Z,64.10
2023-05-17T10:30:33.792Z,25.10
2023-05-17T10:31:35.479Z,45.80
2023-05-17T10:32:35.340Z,34.50
2023-05-17T10:33:36.117Z,25.30
2023-05-17T10:34:36.793Z,27.60
2023-05-17T10:35:38.638Z,69.40
2023-05-17T10:36:38.961Z,26.40
2023-05-17T10:37:39.157Z,29.80
2023-05-17T10:38:42.891Z,15.30
2023-05-17T10:39:40.407Z,9.90
2023-05-17T10:40:41.124Z,3.20
2023-05-17T10:41:41.843Z,3.00
2023-05-17T10:42:42.582Z,3.60
2023-05-17T10:43:43.269Z,3.70
2023-05-17T10:44:43.973Z,3.20
2023-05-17T10:45:44.672Z,2.60
2023-05-17T10:46:45.383Z,2.10
2023-05-17T10:47:46.178Z,2.40
2023-05-17T10:48:46.989Z,3.60
2023-05-17T10:49:47.767Z,2.50
2023-05-17T10:51:00.783Z,2.90
2023-05-17T10:51:50.462Z,2.60
2023-05-17T10:52:50.188Z,3.10
2023-05-17T10:53:50.917Z,5.70
2023-05-17T10:54:51.573Z,3.00
2023-05-17T10:55:52.276Z,2.70
2023-05-17T10:56:53.459Z,2.70
2023-05-17T10:57:53.664Z,3.90
2023-05-17T10:58:54.374Z,2.70
2023-05-17T10:59:55.074Z,4.70
2023-05-17T11:00:56.262Z,2.90
2023-05-17T11:01:56.448Z,3.20
2023-05-17T11:02:57.219Z,2.90
2023-05-17T11:03:57.860Z,2.40
2023-05-17T11:04:58.756Z,3.20
2023-05-17T11:06:00.566Z,3.60
2023-05-17T11:07:01.231Z,3.20
2023-05-17T11:08:00.710Z,4.00
2023-05-17T11:09:01.459Z,4.60
2023-05-17T11:10:02.135Z,8.10
2023-05-17T11:11:02.813Z,14.50
2023-05-17T11:12:03.614Z,5.70
2023-05-17T11:13:04.308Z,5.50
2023-05-17T11:14:05.006Z,14.50
2023-05-17T11:15:08.184Z,19.30
2023-05-17T11:16:06.625Z,11.10
2023-05-17T11:17:07.329Z,46.10
2023-05-17T11:18:18.695Z,15.20
2023-05-17T11:19:09.825Z,6.30
2023-05-17T11:20:10.446Z,11.00
2023-05-17T11:21:09.769Z,5.00
2023-05-17T11:22:10.531Z,7.30
2023-05-17T11:23:11.228Z,12.70
2023-05-17T11:24:12.069Z,6.60
2023-05-17T11:25:12.695Z,4.60
2023-05-17T11:26:16.157Z,3.60
2023-05-17T11:27:14.066Z,2.90
2023-05-17T11:28:14.779Z,2.60
2023-05-17T11:29:15.472Z,2.80
2023-05-17T11:30:16.177Z,3.10
2023-05-17T11:31:16.883Z,3.20
2023-05-17T11:32:17.976Z,2.60
2023-05-17T11:33:29.804Z,2.70
2023-05-17T11:34:19.921Z,2.90
2023-05-17T11:35:19.605Z,2.10
2023-05-17T11:36:20.388Z,2.20
2023-05-17T11:37:21.470Z,2.30
2023-05-17T11:38:21.702Z,2.50
2023-05-17T11:39:22.567Z,2.20
2023-05-17T11:40:23.225Z,2.20
2023-05-17T11:41:26.873Z,2.60
2023-05-17T11:42:24.969Z,2.30
2023-05-17T11:43:25.195Z,2.20
2023-05-17T11:44:25.907Z,2.00
2023-05-17T11:45:26.733Z,2.10
2023-05-17T11:46:27.465Z,2.20
2023-05-17T11:47:28.249Z,2.30
2023-05-17T11:48:29.001Z,2.60
2023-05-17T11:49:35.602Z,2.50
2023-05-17T11:50:31.429Z,2.40
2023-05-17T11:51:31.118Z,2.50
2023-05-17T11:52:31.840Z,2.80
2023-05-17T11:53:32.540Z,2.40
2023-05-17T11:54:33.300Z,2.20
2023-05-17T11:55:33.945Z,2.10
2023-05-17T11:56:42.743Z,2.20
2023-05-17T11:57:37.350Z,2.00
2023-05-17T11:58:35.891Z,2.20
2023-05-17T11:59:36.779Z,2.20
2023-05-17T12:00:37.501Z,2.70
2023-05-17T12:01:38.230Z,2.30
2023-05-17T12:02:39.009Z,2.30
2023-05-17T12:03:39.691Z,2.60
2023-05-17T12:04:40.462Z,2.30
2023-05-17T12:05:41.201Z,2.60
2023-05-17T12:06:41.955Z,4.80
2023-05-17T12:07:42.632Z,3.30
2023-05-17T12:08:43.325Z,2.70
2023-05-17T12:09:44.152Z,3.20
2023-05-17T12:10:44.790Z,3.20
2023-05-17T12:11:45.488Z,3.60
2023-05-17T12:12:46.316Z,2.40
2023-05-17T12:13:47.127Z,2.10
2023-05-17T12:14:47.764Z,2.40
2023-05-17T12:15:48.547Z,2.60
2023-05-17T12:16:49.223Z,2.30
2023-05-17T12:17:51.565Z,2.50
2023-05-17T12:18:50.830Z,2.30
2023-05-17T12:19:51.376Z,2.40
2023-05-17T12:20:52.190Z,2.30
2023-05-17T12:21:52.906Z,2.10
2023-05-17T12:22:53.694Z,2.10
2023-05-17T12:23:54.353Z,2.00
2023-05-17T12:24:55.165Z,2.60
2023-05-17T12:25:55.868Z,2.50
2023-05-17T12:26:56.566Z,1.90
2023-05-17T12:27:57.498Z,2.10
2023-05-17T12:28:58.994Z,2.40
2023-05-17T12:29:58.705Z,2.30
2023-05-17T12:30:59.414Z,2.00
2023-05-17T12:32:00.118Z,2.80
2023-05-17T12:33:01.047Z,2.30
2023-05-17T12:34:01.865Z,2.50
2023-05-17T12:35:02.590Z,2.30
2023-05-17T12:36:03.332Z,2.20
2023-05-17T12:37:04.017Z,2.00
2023-05-17T12:38:05.024Z,2.60
2023-05-17T12:39:06.490Z,2.20
2023-05-17T12:40:06.255Z,2.10
2023-05-17T12:41:06.884Z,2.10
2023-05-17T12:42:07.626Z,2.20
2023-05-17T12:43:08.560Z,2.00
2023-05-17T12:45:09.893Z,2.40
2023-05-17T12:46:10.587Z,2.10
2023-05-17T12:47:11.307Z,2.70
2023-05-17T12:48:12.140Z,2.40
2023-05-17T12:49:12.962Z,3.20
2023-05-17T12:50:13.648Z,2.30
2023-05-17T12:51:14.357Z,2.40
2023-05-17T12:52:15.058Z,2.30
2023-05-17T12:53:15.775Z,2.50
2023-05-17T12:54:16.483Z,2.30
2023-05-17T12:55:17.339Z,2.10
2023-05-17T12:56:17.986Z,2.30
2023-05-17T12:57:18.690Z,2.10
2023-05-17T12:58:19.501Z,2.10
2023-05-17T12:59:20.189Z,2.10
2023-05-17T13:00:21.086Z,2.00
2023-05-17T13:01:21.737Z,2.00
2023-05-17T13:02:22.453Z,1.90
2023-05-17T13:03:23.586Z,2.10
2023-05-17T13:04:23.830Z,2.00
2023-05-17T13:05:24.506Z,2.10
2023-05-17T13:06:25.204Z,2.30
2023-05-17T13:07:25.913Z,2.30
2023-05-17T13:08:26.993Z,2.20
2023-05-17T13:09:27.216Z,2.20
2023-05-17T13:10:28.194Z,2.20
2023-05-17T13:11:28.818Z,2.20
2023-05-17T13:12:29.527Z,2.30
2023-05-17T13:13:30.497Z,2.00
2023-05-17T13:14:31.203Z,2.20
2023-05-17T13:15:31.907Z,2.00
2023-05-17T13:16:32.654Z,2.30
2023-05-17T13:17:33.386Z,2.10
2023-05-17T13:18:34.591Z,2.30
2023-05-17T13:19:34.922Z,2.30
2023-05-17T13:20:35.704Z,2.30
2023-05-17T13:21:36.436Z,2.30
2023-05-17T13:22:37.118Z,2.00
2023-05-17T13:23:38.026Z,2.10
2023-05-17T13:24:38.734Z,1.90
2023-05-17T13:25:39.487Z,1.90
2023-05-17T13:26:40.130Z,2.10
2023-05-17T13:27:40.862Z,1.80
2023-05-17T13:28:42.019Z,2.00